Time;durP1;ratioP1;P1;durP2;ratioP2;P2;SDS_P1;SDS_P2;PMS_P1;PMS_P2;Temp;Humidity;BMP_temperature;BMP_pressure;BME280_temperature;BME280_humidity;BME280_pressure;Samples;Min_cycle;Max_cycle;Signal;HPM_P1;HPM_P2
2023/03/20 00:02:25;;;;;;;44.60;29.63;;;14.00;93.60;;;;;;5076418;28;20504;-77
2023/03/20 00:04:51;;;;;;;34.40;27.87;;;14.00;93.40;;;;;;5076220;28;20410;-81
2023/03/20 00:07:17;;;;;;;38.33;29.43;;;13.90;93.10;;;;;;5075008;28;20437;-77
2023/03/20 00:09:43;;;;;;;36.30;27.07;;;14.00;92.90;;;;;;5076345;28;20577;-80
2023/03/20 00:12:22;;;;;;;41.67;29.90;;;13.90;93.20;;;;;;5074960;28;20717;-76
2023/03/20 00:14:47;;;;;;;40.83;29.53;;;13.90;93.60;;;;;;5074824;28;20181;-77
2023/03/20 00:17:19;;;;;;;41.07;27.50;;;13.80;93.50;;;;;;5076098;28;21031;-76
2023/03/20 00:19:45;;;;;;;41.63;29.40;;;13.80;93.10;;;;;;5074865;28;20497;-76
2023/03/20 00:22:11;;;;;;;39.77;29.43;;;13.80;93.30;;;;;;5076552;28;20541;-76
2023/03/20 00:24:37;;;;;;;39.47;30.00;;;13.80;93.50;;;;;;5074851;28;20402;-76
2023/03/20 00:27:04;;;;;;;42.00;29.47;;;13.60;93.40;;;;;;5075919;28;20937;-81
2023/03/20 00:29:31;;;;;;;34.53;26.93;;;13.70;93.50;;;;;;5075993;28;20398;-77
2023/03/20 00:31:58;;;;;;;34.27;27.10;;;13.80;93.10;;;;;;5074838;28;20978;-76
2023/03/20 00:34:27;;;;;;;42.53;28.83;;;13.80;93.20;;;;;;5074623;28;20421;-76
2023/03/20 00:36:55;;;;;;;35.80;27.73;;;13.70;93.80;;;;;;5076135;28;20493;-81
2023/03/20 00:39:22;;;;;;;36.07;27.30;;;13.80;93.10;;;;;;5075885;28;20890;-76
2023/03/20 00:41:57;;;;;;;33.23;25.77;;;13.80;93.20;;;;;;5074537;28;20441;-76
2023/03/20 00:44:49;;;;;;;33.50;23.93;;;13.70;93.10;;;;;;5074537;28;20405;-81
2023/03/20 00:47:23;;;;;;;39.83;25.03;;;13.60;93.00;;;;;;5075667;28;20436;-81
2023/03/20 00:49:51;;;;;;;38.23;27.37;;;13.60;93.00;;;;;;5075545;28;20502;-77
2023/03/20 00:52:18;;;;;;;32.90;24.90;;;13.50;93.30;;;;;;5075589;28;20418;-80
2023/03/20 00:54:44;;;;;;;33.40;24.80;;;13.60;93.30;;;;;;5075581;28;20898;-77
2023/03/20 00:57:22;;;;;;;35.80;26.97;;;13.70;93.40;;;;;;5074307;28;20485;-81
2023/03/20 01:00:05;;;;;;;35.27;27.90;;;13.80;93.30;;;;;;5075458;28;20406;-76
2023/03/20 01:02:31;;;;;;;36.47;25.10;;;13.80;93.40;;;;;;5074575;28;20485;-76
2023/03/20 01:04:57;;;;;;;32.90;25.53;;;13.70;93.20;;;;;;5073958;28;20412;-80
2023/03/20 01:07:23;;;;;;;35.77;26.53;;;13.70;93.40;;;;;;5073944;28;20432;-81
2023/03/20 01:09:49;;;;;;;51.17;32.57;;;13.70;93.00;;;;;;5075120;28;20423;-80
2023/03/20 01:12:16;;;;;;;40.77;29.87;;;13.70;92.90;;;;;;5073868;28;20209;-80
2023/03/20 01:14:42;;;;;;;71.33;39.10;;;13.70;93.60;;;;;;5073680;28;20422;-76
2023/03/20 01:17:20;;;;;;;43.17;27.70;;;13.80;94.00;;;;;;5075495;28;20592;-80
2023/03/20 01:19:46;;;;;;;42.37;26.13;;;13.80;93.90;;;;;;5075003;28;20410;-77
2023/03/20 01:22:13;;;;;;;35.60;27.83;;;13.80;94.80;;;;;;5075518;28;20806;-80
2023/03/20 01:24:39;;;;;;;38.60;26.77;;;13.70;94.60;;;;;;5073024;28;20417;-80
2023/03/20 01:27:11;;;;;;;39.00;24.43;;;13.70;94.70;;;;;;5073653;28;20453;-81
2023/03/20 01:29:37;;;;;;;35.93;28.00;;;13.70;93.50;;;;;;5074895;28;20481;-76
2023/03/20 01:32:07;;;;;;;43.23;32.47;;;13.70;93.50;;;;;;5075237;28;20477;-81
2023/03/20 01:34:33;;;;;;;63.77;43.00;;;13.70;93.30;;;;;;5074798;28;20252;-81
2023/03/20 01:36:59;;;;;;;158.17;68.40;;;13.70;93.50;;;;;;5075086;28;20559;-76
2023/03/20 01:39:33;;;;;;;47.80;29.10;;;13.70;93.20;;;;;;5073411;28;20222;-81
2023/03/20 01:41:59;;;;;;;34.80;25.87;;;13.70;94.40;;;;;;5073652;28;20446;-76
2023/03/20 01:44:30;;;;;;;33.30;25.97;;;13.70;94.00;;;;;;5074506;28;20489;-81
2023/03/20 01:46:57;;;;;;;33.97;25.60;;;13.70;95.30;;;;;;5074269;28;20449;-76
2023/03/20 01:49:22;;;;;;;36.30;26.60;;;13.70;94.60;;;;;;5074468;28;20398;-80
2023/03/20 01:51:49;;;;;;;38.03;24.97;;;13.70;95.10;;;;;;5072891;28;20429;-81
2023/03/20 01:54:36;;;;;;;38.20;25.73;;;13.60;94.90;;;;;;5074397;28;20581;-80
2023/03/20 01:57:08;;;;;;;34.53;25.80;;;13.70;94.70;;;;;;5074676;28;20985;-80
2023/03/20 01:59:45;;;;;;;40.20;28.27;;;13.70;94.80;;;;;;5074328;28;20397;-76
2023/03/20 02:02:17;;;;;;;31.87;25.73;;;13.70;95.50;;;;;;5074058;28;20952;-81
2023/03/20 02:04:49;;;;;;;34.63;25.73;;;13.70;94.70;;;;;;5074229;28;20398;-76
2023/03/20 02:07:19;;;;;;;36.13;27.27;;;13.60;94.80;;;;;;5072748;28;20471;-80
2023/03/20 02:09:47;;;;;;;43.27;27.53;;;13.60;94.40;;;;;;5074075;28;20406;-76
2023/03/20 02:12:14;;;;;;;35.23;25.47;;;13.60;94.50;;;;;;5074554;28;20938;-76
2023/03/20 02:14:40;;;;;;;36.67;27.20;;;13.50;94.60;;;;;;5073824;28;20414;-81
2023/03/20 02:17:09;;;;;;;32.70;25.47;;;13.40;94.80;;;;;;5074492;28;20534;-76
2023/03/20 02:19:41;;;;;;;39.03;27.20;;;13.30;95.00;;;;;;5072687;28;20421;-76
2023/03/20 02:22:33;;;;;;;35.27;26.10;;;13.30;95.60;;;;;;5073907;28;20958;-81
2023/03/20 02:25:31;;;;;;;35.63;26.20;;;13.40;95.20;;;;;;5072613;28;20449;-80
2023/03/20 02:28:34;;;;;;;38.70;28.00;;;13.50;95.40;;;;;;5064042;28;20965;-76
2023/03/20 02:31:10;;;;;;;36.97;24.57;;;13.40;96.10;;;;;;5074130;28;20429;-81
2023/03/20 02:33:45;;;;;;;36.60;24.67;;;13.40;95.50;;;;;;5072566;28;20961;-76
2023/03/20 02:36:16;;;;;;;31.20;24.87;;;13.40;95.00;;;;;;5072680;28;20473;-76
2023/03/20 02:38:56;;;;;;;34.13;23.27;;;13.30;94.90;;;;;;5073649;28;20425;-78
2023/03/20 02:41:43;;;;;;;31.37;24.77;;;13.30;95.00;;;;;;5072680;28;20521;-76
2023/03/20 02:44:17;;;;;;;33.83;23.77;;;13.30;95.00;;;;;;5072415;28;20426;-76
2023/03/20 02:47:22;;;;;;;30.60;23.17;;;13.30;95.10;;;;;;5073983;28;20429;-80
2023/03/20 02:50:12;;;;;;;38.00;24.40;;;13.20;95.20;;;;;;5071928;28;20821;-80
2023/03/20 02:53:13;;;;;;;30.93;23.67;;;13.20;95.20;;;;;;5072303;28;20479;-80
2023/03/20 02:55:44;;;;;;;28.77;22.00;;;13.20;95.60;;;;;;5073778;28;20425;-81
2023/03/20 02:58:19;;;;;;;26.43;21.97;;;13.20;95.30;;;;;;5072287;28;20950;-81
2023/03/20 03:01:12;;;;;;;30.57;21.73;;;13.20;95.30;;;;;;5073585;28;20427;-80
2023/03/20 03:03:50;;;;;;;32.90;22.23;;;13.20;95.40;;;;;;5073464;28;20430;-81
2023/03/20 03:06:32;;;;;;;29.90;20.53;;;13.20;95.50;;;;;;5072434;28;20425;-81
2023/03/20 03:09:03;;;;;;;29.23;22.50;;;13.30;95.30;;;;;;5072257;28;20464;-76
2023/03/20 03:11:34;;;;;;;25.73;20.20;;;13.40;95.50;;;;;;5073683;28;20441;-76
2023/03/20 03:14:00;;;;;;;30.03;20.60;;;13.40;95.40;;;;;;5072162;28;20414;-81
2023/03/20 03:16:34;;;;;;;30.50;21.17;;;13.40;95.10;;;;;;5073528;28;20635;-76
2023/03/20 03:19:17;;;;;;;29.27;20.33;;;13.50;95.10;;;;;;5072167;28;20492;-76
2023/03/20 03:21:45;;;;;;;24.40;19.33;;;13.60;94.80;;;;;;5073760;28;21016;-81
2023/03/20 03:24:51;;;;;;;25.53;19.00;;;13.60;94.70;;;;;;5071801;28;20414;-81
2023/03/20 03:27:25;;;;;;;28.40;19.83;;;13.70;94.60;;;;;;5068823;28;20520;-80
2023/03/20 03:29:56;;;;;;;25.90;18.17;;;13.70;94.60;;;;;;5071907;28;20581;-81
2023/03/20 03:32:30;;;;;;;25.40;18.33;;;13.70;94.40;;;;;;5071558;28;20443;-76
2023/03/20 03:34:57;;;;;;;24.07;18.50;;;13.80;94.40;;;;;;5071815;28;20418;-80
2023/03/20 03:37:35;;;;;;;24.73;18.43;;;13.80;94.40;;;;;;5071708;28;20556;-80
2023/03/20 03:40:13;;;;;;;26.07;18.57;;;13.80;94.30;;;;;;5071954;28;20410;-81
2023/03/20 03:42:45;;;;;;;23.07;18.13;;;13.80;94.30;;;;;;5069874;28;20971;-81
2023/03/20 03:45:32;;;;;;;24.97;18.20;;;13.80;94.40;;;;;;5069702;28;20919;-80
2023/03/20 03:48:05;;;;;;;24.10;18.33;;;13.80;94.40;;;;;;5072873;28;20430;-81
2023/03/20 03:50:47;;;;;;;23.23;16.93;;;13.80;94.50;;;;;;5073214;28;20958;-81
2023/03/20 03:53:16;;;;;;;23.87;17.57;;;13.80;94.40;;;;;;5073448;28;20448;-81
2023/03/20 03:55:47;;;;;;;21.53;16.60;;;13.80;94.30;;;;;;5073063;28;20528;-76
2023/03/20 03:58:16;;;;;;;21.20;17.30;;;13.90;94.60;;;;;;5074898;28;20437;-81
2023/03/20 04:00:45;;;;;;;24.13;18.33;;;14.00;94.30;;;;;;5076711;28;20432;-76
2023/03/20 04:03:11;;;;;;;24.87;17.40;;;14.00;94.50;;;;;;5076475;28;20978;-81
2023/03/20 04:05:41;;;;;;;22.77;16.53;;;14.00;94.40;;;;;;5076613;28;20420;-81
2023/03/20 04:08:08;;;;;;;22.90;15.67;;;14.10;94.30;;;;;;5075139;28;20440;-81
2023/03/20 04:10:34;;;;;;;18.00;15.10;;;14.10;94.20;;;;;;5075264;28;20422;-76
2023/03/20 04:13:00;;;;;;;22.30;16.57;;;14.10;94.10;;;;;;5075034;28;20425;-81
2023/03/20 04:15:26;;;;;;;21.33;16.13;;;14.10;94.10;;;;;;5076089;28;20460;-81
2023/03/20 04:17:52;;;;;;;23.63;16.83;;;14.10;94.40;;;;;;5076238;28;20841;-80
2023/03/20 04:20:19;;;;;;;20.10;16.27;;;14.00;94.30;;;;;;5076246;28;20939;-81
2023/03/20 04:22:45;;;;;;;22.50;15.90;;;14.00;94.30;;;;;;5076092;28;20421;-81
2023/03/20 04:25:22;;;;;;;20.70;15.80;;;14.10;94.30;;;;;;5076195;28;20410;-81
2023/03/20 04:27:48;;;;;;;20.70;15.10;;;14.00;94.30;;;;;;5074798;28;20814;-76
2023/03/20 04:30:14;;;;;;;19.63;16.33;;;14.00;94.40;;;;;;5074777;28;20426;-76
2023/03/20 04:32:39;;;;;;;18.30;15.87;;;14.00;94.40;;;;;;5075964;28;20266;-76
2023/03/20 04:35:06;;;;;;;19.73;15.93;;;14.00;94.40;;;;;;5074699;28;20405;-76
2023/03/20 04:37:31;;;;;;;20.43;15.87;;;14.00;94.50;;;;;;5074444;28;20228;-81
2023/03/20 04:39:57;;;;;;;18.37;14.53;;;14.00;94.40;;;;;;5075942;28;20406;-81
2023/03/20 04:42:23;;;;;;;20.60;16.47;;;13.90;94.50;;;;;;5074529;28;20257;-77
2023/03/20 04:44:48;;;;;;;22.10;16.40;;;13.90;94.60;;;;;;5075696;28;20237;-80
2023/03/20 04:47:14;;;;;;;18.97;16.07;;;13.90;94.70;;;;;;5075676;28;20758;-81
2023/03/20 04:49:40;;;;;;;21.03;16.40;;;13.80;94.80;;;;;;5075687;28;20215;-77
2023/03/20 04:52:06;;;;;;;21.00;17.30;;;13.80;94.80;;;;;;5074389;28;20442;-76
2023/03/20 04:54:32;;;;;;;19.37;15.90;;;13.70;94.80;;;;;;5075683;28;20212;-76
2023/03/20 04:56:57;;;;;;;20.57;16.37;;;13.80;94.90;;;;;;5075762;28;20572;-80
2023/03/20 04:59:23;;;;;;;28.53;16.63;;;13.70;95.10;;;;;;5074487;28;20173;-80
2023/03/20 05:01:49;;;;;;;19.30;16.10;;;13.70;95.00;;;;;;5075045;28;20169;-76
2023/03/20 05:04:15;;;;;;;19.50;16.40;;;13.70;94.90;;;;;;5073964;28;20228;-80
2023/03/20 05:06:40;;;;;;;19.27;15.10;;;13.70;95.00;;;;;;5075049;28;20422;-76
2023/03/20 05:09:06;;;;;;;19.43;15.20;;;13.70;94.80;;;;;;5073978;28;20695;-80
2023/03/20 05:11:32;;;;;;;19.63;16.40;;;13.60;95.00;;;;;;5075485;28;20638;-76
2023/03/20 05:13:57;;;;;;;19.00;15.33;;;13.50;95.10;;;;;;5075004;28;20184;-77
2023/03/20 05:16:23;;;;;;;18.77;15.53;;;13.40;95.30;;;;;;5073756;28;20751;-81
2023/03/20 05:18:49;;;;;;;20.20;15.43;;;13.30;95.50;;;;;;5074941;28;20224;-76
2023/03/20 05:21:15;;;;;;;20.20;15.43;;;13.30;95.50;;;;;;5073866;28;20250;-76
2023/03/20 05:23:40;;;;;;;17.80;15.70;;;13.30;95.40;;;;;;5074875;28;20438;-76
2023/03/20 05:26:06;;;;;;;23.10;17.70;;;13.40;95.40;;;;;;5073467;28;20212;-76
2023/03/20 05:28:32;;;;;;;26.77;19.53;;;13.40;95.40;;;;;;5073686;28;20661;-80
2023/03/20 05:30:58;;;;;;;22.23;17.73;;;13.50;95.50;;;;;;5073763;28;20189;-80
2023/03/20 05:33:23;;;;;;;21.90;16.10;;;13.50;95.70;;;;;;5072458;28;20202;-76
2023/03/20 05:35:49;;;;;;;19.43;15.83;;;13.40;95.80;;;;;;5072946;28;20181;-79
2023/03/20 05:38:15;;;;;;;21.60;16.20;;;13.30;95.90;;;;;;5071626;28;20244;-76
2023/03/20 05:40:41;;;;;;;19.80;16.30;;;13.20;96.20;;;;;;5063751;28;20596;-81
2023/03/20 05:43:07;;;;;;;38.67;29.10;;;13.20;96.40;;;;;;5063744;28;20510;-76
2023/03/20 05:45:33;;;;;;;77.60;69.13;;;13.10;96.60;;;;;;5062013;28;20280;-81
2023/03/20 05:47:58;;;;;;;87.30;72.90;;;13.20;96.70;;;;;;5062993;28;21193;-80
2023/03/20 05:50:24;;;;;;;44.30;34.63;;;13.10;96.80;;;;;;5061357;28;20449;-81
2023/03/20 05:52:50;;;;;;;23.33;20.83;;;13.10;96.90;;;;;;5065659;28;20196;-76
2023/03/20 05:55:16;;;;;;;19.70;17.60;;;13.00;97.10;;;;;;5064270;28;20504;-80
2023/03/20 05:57:41;;;;;;;21.13;16.30;;;13.00;97.50;;;;;;5063811;28;20697;-86
2023/03/20 06:00:09;;;;;;;26.53;23.00;;;13.00;97.20;;;;;;5060517;28;20415;-80
2023/03/20 06:02:35;;;;;;;24.73;20.20;;;13.20;97.40;;;;;;5070463;28;20224;-85
2023/03/20 06:05:02;;;;;;;25.57;22.33;;;13.20;97.50;;;;;;5062571;28;20422;-85
2023/03/20 06:07:28;;;;;;;22.40;20.00;;;13.20;97.20;;;;;;5060737;28;20434;-83
2023/03/20 06:09:54;;;;;;;23.60;19.33;;;13.20;97.30;;;;;;5057837;28;20419;-83
2023/03/20 06:12:20;;;;;;;22.40;17.43;;;13.30;97.50;;;;;;5058244;28;20193;-83
2023/03/20 06:14:46;;;;;;;19.20;17.10;;;13.30;97.40;;;;;;5061875;28;20425;-90
2023/03/20 06:17:11;;;;;;;22.67;18.30;;;13.30;97.50;;;;;;5064010;28;20492;-86
2023/03/20 06:19:37;;;;;;;23.97;20.97;;;13.40;97.60;;;;;;5060481;28;20177;-89
2023/03/20 06:22:03;;;;;;;24.73;22.27;;;13.40;97.80;;;;;;5060889;28;20193;-83
2023/03/20 06:24:29;;;;;;;23.60;17.83;;;13.50;97.90;;;;;;5063878;28;20256;-82
2023/03/20 06:26:55;;;;;;;18.80;16.43;;;13.60;97.70;;;;;;5068085;28;20466;-84
2023/03/20 06:29:21;;;;;;;23.57;15.93;;;13.70;97.70;;;;;;5063780;28;20178;-89
2023/03/20 06:31:47;;;;;;;20.00;15.60;;;13.80;97.70;;;;;;5065181;28;20845;-90
2023/03/20 06:34:13;;;;;;;19.70;15.40;;;14.00;97.60;;;;;;5060998;28;20205;-90
2023/03/20 06:36:39;;;;;;;20.07;15.53;;;14.20;97.50;;;;;;5067911;28;20477;-88
2023/03/20 06:39:05;;;;;;;20.47;14.93;;;14.10;97.50;;;;;;5065729;28;20446;-82
2023/03/20 06:41:31;;;;;;;16.40;14.53;;;14.10;97.80;;;;;;5061675;28;20445;-84
2023/03/20 06:43:56;;;;;;;22.23;15.50;;;14.10;98.00;;;;;;5060417;28;20780;-88
2023/03/20 06:46:22;;;;;;;18.63;15.07;;;14.10;97.80;;;;;;5055259;28;20194;-84
2023/03/20 06:48:48;;;;;;;18.23;15.63;;;14.10;97.90;;;;;;5053019;28;20259;-83
2023/03/20 06:51:14;;;;;;;16.93;15.13;;;14.10;98.10;;;;;;5063008;28;20276;-84
2023/03/20 06:53:42;;;;;;;19.80;16.33;;;14.10;98.40;;;;;;5069169;28;20441;-84
2023/03/20 06:56:11;;;;;;;21.63;15.50;;;14.10;98.30;;;;;;5070182;28;20820;-83
2023/03/20 06:58:37;;;;;;;19.00;16.00;;;14.20;98.60;;;;;;5069709;28;20729;-83
2023/03/20 07:01:15;;;;;;;17.43;15.40;;;14.20;98.80;;;;;;5068211;28;20930;-84
2023/03/20 07:03:41;;;;;;;19.80;16.20;;;14.30;98.90;;;;;;5069298;28;20421;-88
2023/03/20 07:06:07;;;;;;;15.37;13.13;;;14.30;98.70;;;;;;5083833;28;20429;-84
2023/03/20 07:08:34;;;;;;;19.17;15.20;;;14.40;98.50;;;;;;5066438;28;20516;-84
2023/03/20 07:11:01;;;;;;;19.87;13.63;;;14.40;98.70;;;;;;5084033;28;20430;-88
2023/03/20 07:13:27;;;;;;;16.77;14.20;;;14.50;99.00;;;;;;5067940;28;20430;-84
2023/03/20 07:15:53;;;;;;;15.00;12.80;;;14.50;99.10;;;;;;5066581;28;20466;-89
2023/03/20 07:18:20;;;;;;;14.50;12.07;;;14.60;99.50;;;;;;5067757;28;20517;-83
2023/03/20 07:20:46;;;;;;;17.30;13.70;;;14.70;99.20;;;;;;5066417;28;20429;-88
2023/03/20 07:23:12;;;;;;;14.47;10.83;;;15.00;99.20;;;;;;5089064;28;20646;-90
2023/03/20 07:25:37;;;;;;;12.03;10.70;;;14.90;98.70;;;;;;5071007;28;20829;-88
2023/03/20 07:28:04;;;;;;;13.47;10.23;;;14.90;99.00;;;;;;5068686;28;20435;-84
2023/03/20 07:30:32;;;;;;;15.00;9.37;;;15.00;98.80;;;;;;5053353;28;20174;-84
2023/03/20 07:32:57;;;;;;;11.07;9.10;;;15.10;98.70;;;;;;5076091;28;20469;-89
2023/03/20 07:35:23;;;;;;;11.90;9.80;;;15.20;98.60;;;;;;5074661;28;20892;-83
2023/03/20 07:37:49;;;;;;;11.50;9.63;;;15.30;98.50;;;;;;5072813;28;20594;-88
2023/03/20 07:40:15;;;;;;;10.87;9.37;;;15.30;98.30;;;;;;5074932;28;20169;-88
2023/03/20 07:42:41;;;;;;;8.47;7.67;;;15.40;98.40;;;;;;5074504;28;20189;-89
2023/03/20 07:45:08;;;;;;;11.80;10.50;;;15.60;98.40;;;;;;5072988;28;20827;-89
2023/03/20 07:47:34;;;;;;;9.97;8.97;;;15.80;98.30;;;;;;5073156;28;20425;-89
2023/03/20 07:50:00;;;;;;;10.97;8.63;;;15.80;98.40;;;;;;5053661;28;20445;-89
2023/03/20 07:52:26;;;;;;;11.07;8.40;;;16.00;98.20;;;;;;5042715;28;20441;-88
2023/03/20 07:54:52;;;;;;;8.30;7.50;;;16.10;97.80;;;;;;5043440;28;20863;-89
2023/03/20 07:57:18;;;;;;;8.63;7.83;;;16.20;97.60;;;;;;5043135;28;20740;-85
2023/03/20 07:59:44;;;;;;;8.27;7.47;;;16.30;97.60;;;;;;5043596;28;20549;-88
2023/03/20 08:02:16;;;;;;;9.20;7.67;;;16.40;97.40;;;;;;5044198;28;20201;-84
2023/03/20 08:04:43;;;;;;;7.87;6.80;;;16.50;97.50;;;;;;5043767;28;20953;-84
2023/03/20 08:07:09;;;;;;;8.00;7.20;;;16.50;97.50;;;;;;5054834;28;20519;-88
2023/03/20 08:09:36;;;;;;;7.33;6.63;;;16.50;97.20;;;;;;5052034;28;20442;-87
2023/03/20 08:12:02;;;;;;;8.53;7.73;;;16.60;97.00;;;;;;5058838;28;20785;-88
2023/03/20 08:14:27;;;;;;;9.03;7.07;;;16.50;96.90;;;;;;5072535;28;20418;-84
2023/03/20 08:16:53;;;;;;;8.33;6.67;;;16.50;97.00;;;;;;5071241;28;20486;-83
2023/03/20 08:19:20;;;;;;;16.90;8.17;;;16.50;97.00;;;;;;5070056;28;20173;-88
2023/03/20 08:21:46;;;;;;;9.50;7.27;;;16.60;97.40;;;;;;5070991;28;20173;-88
2023/03/20 08:24:11;;;;;;;13.10;9.10;;;16.80;97.30;;;;;;5074239;28;20944;-88
2023/03/20 08:26:37;;;;;;;7.70;6.60;;;17.00;97.30;;;;;;5072156;28;20186;-88
2023/03/20 08:29:03;;;;;;;6.83;6.17;;;17.50;96.90;;;;;;5070341;28;20256;-84
2023/03/20 08:31:29;;;;;;;11.23;7.73;;;17.90;95.90;;;;;;5075744;28;20213;-85
2023/03/20 08:33:56;;;;;;;8.67;7.13;;;17.90;95.80;;;;;;5076351;28;20538;-84
2023/03/20 08:36:22;;;;;;;9.60;6.77;;;18.00;95.70;;;;;;5075617;28;20204;-84
2023/03/20 08:38:57;;;;;;;10.60;8.50;;;18.30;95.20;;;;;;5074226;28;20495;-84
2023/03/20 08:41:22;;;;;;;7.57;6.40;;;18.90;95.10;;;;;;5078017;28;20438;-84
2023/03/20 08:43:48;;;;;;;23.80;15.37;;;19.80;95.00;;;;;;5076999;28;20467;-85
2023/03/20 08:46:14;;;;;;;10.43;8.33;;;20.80;93.40;;;;;;5072993;28;20596;-84
2023/03/20 08:48:40;;;;;;;9.17;7.00;;;21.30;92.10;;;;;;5071697;28;20192;-88
2023/03/20 08:51:06;;;;;;;8.27;6.70;;;21.50;91.50;;;;;;5049845;28;20441;-85
2023/03/20 08:53:32;;;;;;;6.60;6.00;;;21.60;91.50;;;;;;5056860;28;20216;-87
2023/03/20 08:55:57;;;;;;;7.90;6.87;;;21.20;91.10;;;;;;5041894;28;20494;-90
2023/03/20 08:58:23;;;;;;;8.27;6.63;;;20.50;91.50;;;;;;5039090;28;20312;-85
2023/03/20 09:00:49;;;;;;;7.70;7.00;;;20.20;92.20;;;;;;5059433;28;20177;-84
2023/03/20 09:03:18;;;;;;;11.30;6.90;;;20.00;92.30;;;;;;5049407;28;20238;-90
2023/03/20 09:05:46;;;;;;;6.60;6.00;;;19.60;92.60;;;;;;5067777;28;20205;-87
2023/03/20 09:08:12;;;;;;;6.97;6.37;;;19.20;93.00;;;;;;5053045;28;20421;-87
2023/03/20 09:10:39;;;;;;;20.60;17.80;;;18.90;93.30;;;;;;5051326;28;20771;-89
2023/03/20 09:13:06;;;;;;;17.70;15.30;;;18.30;94.00;;;;;;5058432;28;20447;-85
2023/03/20 09:15:31;;;;;;;15.80;14.50;;;18.00;94.60;;;;;;5058970;28;20468;-83
2023/03/20 09:17:57;;;;;;;13.93;12.40;;;17.80;94.70;;;;;;5056385;28;20929;-88
2023/03/20 09:20:23;;;;;;;13.47;11.73;;;17.70;95.00;;;;;;5064619;28;20182;-84
2023/03/20 09:22:49;;;;;;;10.70;8.07;;;17.80;95.00;;;;;;5066845;28;20233;-88
2023/03/20 09:25:14;;;;;;;8.07;7.27;;;17.80;95.20;;;;;;5064406;28;20186;-84
2023/03/20 09:27:40;;;;;;;9.23;6.80;;;17.50;95.10;;;;;;5065197;28;20187;-88
2023/03/20 09:30:07;;;;;;;9.00;7.40;;;17.40;96.10;;;;;;5064919;28;20496;-88
2023/03/20 09:32:33;;;;;;;7.93;6.97;;;17.30;96.00;;;;;;5065513;28;20958;-84
2023/03/20 09:35:00;;;;;;;14.20;11.57;;;17.50;96.30;;;;;;5070350;28;20445;-85
2023/03/20 09:37:26;;;;;;;15.17;12.33;;;17.70;96.20;;;;;;5084006;28;20473;-85
2023/03/20 09:39:52;;;;;;;9.20;8.33;;;17.90;95.50;;;;;;5061278;28;20411;-88
2023/03/20 09:42:47;;;;;;;7.97;6.13;;;18.20;95.30;;;;;;5055538;28;20477;-88
2023/03/20 09:45:43;;;;;;;8.17;6.90;;;18.60;95.00;;;;;;5068723;28;20183;-84
2023/03/20 09:48:30;;;;;;;7.73;5.90;;;19.20;94.50;;;;;;5071657;28;20552;-88
2023/03/20 09:51:30;;;;;;;7.53;6.47;;;20.10;94.00;;;;;;5067911;28;20444;-84
2023/03/20 09:54:04;;;;;;;8.27;7.47;;;20.60;93.00;;;;;;5065020;28;20891;-89
2023/03/20 09:56:30;;;;;;;8.80;6.90;;;21.30;92.10;;;;;;5069524;28;20500;-84
2023/03/20 09:59:03;;;;;;;6.13;5.33;;;21.70;91.60;;;;;;5048885;28;20446;-87
2023/03/20 10:01:39;;;;;;;7.43;6.43;;;22.30;90.90;;;;;;5064883;28;20461;-84
2023/03/20 10:04:10;;;;;;;8.00;6.20;;;22.60;89.60;;;;;;5057874;28;20514;-88
2023/03/20 10:06:36;;;;;;;7.67;5.83;;;22.30;89.90;;;;;;5065330;28;20438;-84
2023/03/20 10:09:21;;;;;;;8.30;7.50;;;22.10;89.90;;;;;;5064392;28;20833;-84
2023/03/20 10:12:03;;;;;;;10.33;6.83;;;21.60;90.40;;;;;;5053605;28;20990;-85
2023/03/20 10:14:38;;;;;;;8.27;5.80;;;21.50;90.40;;;;;;5058187;28;20911;-88
2023/03/20 10:17:35;;;;;;;7.90;7.20;;;21.30;90.10;;;;;;5054740;28;20886;-85
2023/03/20 10:20:12;;;;;;;7.10;6.50;;;20.80;90.60;;;;;;5059045;28;20446;-88
2023/03/20 10:22:47;;;;;;;7.07;6.10;;;20.60;90.80;;;;;;5065525;28;20449;-84
2023/03/20 10:25:31;;;;;;;9.20;8.37;;;20.40;91.40;;;;;;5066874;28;20456;-89
2023/03/20 10:27:59;;;;;;;7.80;6.13;;;20.40;91.50;;;;;;5069021;28;20445;-84
2023/03/20 10:30:49;;;;;;;7.00;6.30;;;20.50;91.30;;;;;;5067158;28;20528;-87
2023/03/20 10:33:25;;;;;;;8.27;7.43;;;20.70;91.20;;;;;;5064866;28;20438;-84
2023/03/20 10:36:22;;;;;;;6.90;6.30;;;20.70;90.90;;;;;;5053168;28;20484;-88
2023/03/20 10:39:03;;;;;;;7.83;6.27;;;20.70;91.10;;;;;;5050467;28;20889;-88
2023/03/20 10:41:33;;;;;;;7.90;6.50;;;20.60;91.50;;;;;;5061937;28;20803;-88
2023/03/20 10:44:01;;;;;;;7.97;6.60;;;20.60;91.50;;;;;;5058404;28;21066;-88
2023/03/20 10:46:28;;;;;;;7.40;6.13;;;20.60;91.90;;;;;;5058975;28;20435;-88
2023/03/20 10:49:03;;;;;;;12.17;8.13;;;20.80;92.00;;;;;;5053273;28;20426;-88
2023/03/20 10:51:46;;;;;;;7.27;6.23;;;20.80;91.80;;;;;;5074460;28;20768;-85
2023/03/20 10:54:35;;;;;;;7.83;6.43;;;20.90;91.60;;;;;;5061164;28;20973;-87
2023/03/20 10:57:03;;;;;;;10.00;6.57;;;21.00;92.00;;;;;;5060179;28;20493;-88
2023/03/20 10:59:39;;;;;;;7.30;6.60;;;21.20;91.40;;;;;;5071616;28;20469;-85
2023/03/20 11:02:12;;;;;;;8.43;7.57;;;21.40;91.10;;;;;;5078079;28;20552;-88
2023/03/20 11:04:39;;;;;;;6.30;5.80;;;21.30;90.80;;;;;;5070557;28;20933;-88
2023/03/20 11:07:26;;;;;;;6.30;5.60;;;21.10;91.00;;;;;;5064828;28;20469;-88
2023/03/20 11:10:06;;;;;;;6.57;5.83;;;21.10;90.40;;;;;;5061486;28;20418;-84
2023/03/20 11:12:36;;;;;;;9.33;6.20;;;21.20;90.50;;;;;;5053676;28;20477;-84
2023/03/20 11:15:11;;;;;;;8.30;6.37;;;21.30;90.90;;;;;;5080803;28;20676;-85
2023/03/20 11:17:37;;;;;;;12.13;5.73;;;21.40;90.00;;;;;;5067638;28;20472;-84
2023/03/20 11:20:04;;;;;;;7.50;6.60;;;21.40;89.80;;;;;;5062096;28;20496;-84
2023/03/20 11:22:31;;;;;;;7.40;5.87;;;21.40;90.10;;;;;;5054435;28;20990;-86
2023/03/20 11:25:03;;;;;;;6.63;6.00;;;21.40;89.20;;;;;;5065586;28;20436;-84
2023/03/20 11:27:33;;;;;;;6.50;5.53;;;21.30;88.20;;;;;;5062092;28;20209;-87
2023/03/20 11:30:04;;;;;;;8.10;7.03;;;21.20;87.80;;;;;;5070399;28;20421;-85
2023/03/20 11:32:30;;;;;;;7.57;6.53;;;21.10;88.90;;;;;;5067323;28;20962;-85
2023/03/20 11:35:07;;;;;;;6.90;6.20;;;21.20;89.50;;;;;;5067449;28;20433;-87
2023/03/20 11:37:35;;;;;;;8.27;5.77;;;21.20;88.00;;;;;;5055895;28;20231;-88
2023/03/20 11:40:22;;;;;;;8.07;6.40;;;21.40;88.00;;;;;;5069272;28;20947;-86
2023/03/20 11:42:54;;;;;;;7.00;6.40;;;21.50;88.30;;;;;;5070255;28;20808;-86
2023/03/20 11:45:19;;;;;;;8.10;6.90;;;21.70;88.20;;;;;;5075486;28;20491;-87
2023/03/20 11:47:55;;;;;;;7.77;6.97;;;21.70;86.30;;;;;;5062834;28;20450;-88
2023/03/20 11:50:36;;;;;;;7.20;6.50;;;21.80;87.30;;;;;;5064212;28;20244;-85
2023/03/20 11:53:16;;;;;;;8.00;7.20;;;21.90;87.00;;;;;;5062643;28;20489;-84
2023/03/20 11:55:44;;;;;;;8.27;6.90;;;21.90;86.00;;;;;;5069001;28;20417;-88
2023/03/20 11:58:15;;;;;;;10.63;7.93;;;21.80;87.00;;;;;;5067424;28;20912;-88
2023/03/20 12:00:42;;;;;;;7.87;7.10;;;21.80;86.30;;;;;;5064229;28;20907;-84
2023/03/20 12:03:47;;;;;;;9.53;7.80;;;21.90;85.60;;;;;;5060052;28;20478;-88
2023/03/20 12:06:18;;;;;;;7.93;7.10;;;21.90;86.80;;;;;;5046397;28;20477;-87
2023/03/20 12:08:54;;;;;;;9.43;7.67;;;22.00;87.10;;;;;;5055714;28;20874;-88
2023/03/20 12:11:45;;;;;;;8.70;7.80;;;22.00;85.10;;;;;;5058443;28;20885;-87
2023/03/20 12:14:22;;;;;;;8.37;7.57;;;21.90;84.20;;;;;;5057051;28;20441;-87
2023/03/20 12:16:54;;;;;;;11.50;8.40;;;21.80;84.50;;;;;;5058348;28;20481;-87
2023/03/20 12:19:28;;;;;;;10.03;9.03;;;21.90;85.40;;;;;;5057443;28;20441;-87
2023/03/20 12:22:14;;;;;;;11.00;8.63;;;21.90;84.60;;;;;;5057148;28;20502;-83
2023/03/20 12:24:53;;;;;;;10.77;9.67;;;21.90;84.50;;;;;;5060070;28;20479;-83
2023/03/20 12:27:29;;;;;;;11.40;8.60;;;21.80;86.00;;;;;;5058720;28;20486;-84
2023/03/20 12:30:30;;;;;;;9.00;8.20;;;21.80;86.00;;;;;;5059198;28;20811;-87
2023/03/20 12:33:11;;;;;;;10.97;9.87;;;21.90;86.30;;;;;;5044415;28;20454;-87
2023/03/20 12:35:46;;;;;;;10.27;9.27;;;22.00;84.80;;;;;;5065876;28;20433;-84
2023/03/20 12:38:40;;;;;;;11.50;9.50;;;22.00;82.80;;;;;;5059587;28;20762;-87
2023/03/20 12:41:14;;;;;;;11.70;9.10;;;21.90;83.30;;;;;;5056843;28;20986;-87
2023/03/20 12:43:58;;;;;;;9.93;8.43;;;21.90;83.30;;;;;;5053928;28;20465;-85
2023/03/20 12:46:53;;;;;;;12.67;9.40;;;21.80;84.10;;;;;;5065057;28;20590;-87
2023/03/20 12:49:21;;;;;;;11.40;10.20;;;21.80;83.90;;;;;;5065414;28;20433;-87
2023/03/20 12:51:56;;;;;;;14.67;10.30;;;21.80;84.60;;;;;;5058529;28;20514;-87
2023/03/20 12:54:36;;;;;;;10.67;9.67;;;21.60;83.40;;;;;;5069522;28;20429;-84